sensor_id;sensor_type;location;lat;lon;timestamp;pressure;altitude;pressure_sealevel;temperature
81657;BMP280;71067;51.482;-0.580;2023-08-07T00:01:10;101917.03;;;14.24
81657;BMP280;71067;51.482;-0.580;2023-08-07T00:03:35;101910.81;;;14.17
81657;BMP280;71067;51.482;-0.580;2023-08-07T00:06:01;101919.19;;;14.20
81657;BMP280;71067;51.482;-0.580;2023-08-07T00:08:26;101917.69;;;14.18
81657;BMP280;71067;51.482;-0.580;2023-08-07T00:10:51;101915.88;;;14.18
81657;BMP280;71067;51.482;-0.580;2023-08-07T00:13:17;101904.22;;;14.22
81657;BMP280;71067;51.482;-0.580;2023-08-07T00:15:42;101915.59;;;14.21
81657;BMP280;71067;51.482;-0.580;2023-08-07T00:18:07;101920.97;;;14.20
81657;BMP280;71067;51.482;-0.580;2023-08-07T00:20:32;101919.19;;;14.20
81657;BMP280;71067;51.482;-0.580;2023-08-07T00:22:58;101908.88;;;14.19
81657;BMP280;71067;51.482;-0.580;2023-08-07T00:25:23;101917.19;;;14.14
81657;BMP280;71067;51.482;-0.580;2023-08-07T00:27:49;101919.78;;;14.14
81657;BMP280;71067;51.482;-0.580;2023-08-07T00:30:14;101905.75;;;14.07
81657;BMP280;71067;51.482;-0.580;2023-08-07T00:32:39;101904.56;;;14.02
81657;BMP280;71067;51.482;-0.580;2023-08-07T00:35:05;101912.56;;;14.08
81657;BMP280;71067;51.482;-0.580;2023-08-07T00:37:31;101914.84;;;14.03
81657;BMP280;71067;51.482;-0.580;2023-08-07T00:39:57;101907.19;;;14.02
81657;BMP280;71067;51.482;-0.580;2023-08-07T00:42:22;101908.66;;;14.04
81657;BMP280;71067;51.482;-0.580;2023-08-07T00:44:47;101900.19;;;14.02
81657;BMP280;71067;51.482;-0.580;2023-08-07T00:47:13;101914.84;;;14.03
81657;BMP280;71067;51.482;-0.580;2023-08-07T00:49:38;101907.66;;;14.05
81657;BMP280;71067;51.482;-0.580;2023-08-07T00:52:04;101909.91;;;14.00
81657;BMP280;71067;51.482;-0.580;2023-08-07T00:54:30;101906.28;;;13.93
81657;BMP280;71067;51.482;-0.580;2023-08-07T00:57:02;101915.75;;;13.94
81657;BMP280;71067;51.482;-0.580;2023-08-07T00:59:34;101911.34;;;13.94
81657;BMP280;71067;51.482;-0.580;2023-08-07T01:01:59;101906.28;;;13.93
81657;BMP280;71067;51.482;-0.580;2023-08-07T01:04:25;101909.22;;;13.90
81657;BMP280;71067;51.482;-0.580;2023-08-07T01:06:51;101913.88;;;13.86
81657;BMP280;71067;51.482;-0.580;2023-08-07T01:09:16;101915.84;;;13.84
81657;BMP280;71067;51.482;-0.580;2023-08-07T01:12:00;101898.72;;;13.82
81657;BMP280;71067;51.482;-0.580;2023-08-07T01:14:42;101905.25;;;13.78
81657;BMP280;71067;51.482;-0.580;2023-08-07T01:17:17;101907.69;;;13.79
81657;BMP280;71067;51.482;-0.580;2023-08-07T01:19:44;101908.50;;;13.80
81657;BMP280;71067;51.482;-0.580;2023-08-07T01:22:11;101911.56;;;13.75
81657;BMP280;71067;51.482;-0.580;2023-08-07T01:24:38;101908.50;;;13.80
81657;BMP280;71067;51.482;-0.580;2023-08-07T01:30:28;101900.97;;;13.77
81657;BMP280;71067;51.482;-0.580;2023-08-07T01:33:00;101903.94;;;13.82
81657;BMP280;71067;51.482;-0.580;2023-08-07T01:35:34;101902.31;;;13.81
81657;BMP280;71067;51.482;-0.580;2023-08-07T01:38:01;101893.03;;;13.78
81657;BMP280;71067;51.482;-0.580;2023-08-07T01:40:28;101895.50;;;13.80
81657;BMP280;71067;51.482;-0.580;2023-08-07T01:42:54;101897.13;;;13.81
81657;BMP280;71067;51.482;-0.580;2023-08-07T01:45:26;101896.44;;;13.79
81657;BMP280;71067;51.482;-0.580;2023-08-07T01:47:52;101900.03;;;13.78
81657;BMP280;71067;51.482;-0.580;2023-08-07T01:50:19;101892.34;;;13.76
81657;BMP280;71067;51.482;-0.580;2023-08-07T01:52:45;101901.66;;;13.79
81657;BMP280;71067;51.482;-0.580;2023-08-07T01:55:11;101898.09;;;13.80
81657;BMP280;71067;51.482;-0.580;2023-08-07T01:57:36;101892.56;;;13.83
81657;BMP280;71067;51.482;-0.580;2023-08-07T02:00:01;101894.50;;;13.81
81657;BMP280;71067;51.482;-0.580;2023-08-07T02:02:28;101890.28;;;13.80
81657;BMP280;71067;51.482;-0.580;2023-08-07T02:04:54;101890.09;;;13.81
81657;BMP280;71067;51.482;-0.580;2023-08-07T02:07:19;101894.50;;;13.81
81657;BMP280;71067;51.482;-0.580;2023-08-07T02:09:44;101892.06;;;13.79
81657;BMP280;71067;51.482;-0.580;2023-08-07T02:12:10;101897.13;;;13.81
81657;BMP280;71067;51.482;-0.580;2023-08-07T02:14:35;101890.28;;;13.80
81657;BMP280;71067;51.482;-0.580;2023-08-07T02:17:03;101881.16;;;13.76
81657;BMP280;71067;51.482;-0.580;2023-08-07T02:19:29;101887.63;;;13.72
81657;BMP280;71067;51.482;-0.580;2023-08-07T02:21:54;101896.44;;;13.79
81657;BMP280;71067;51.482;-0.580;2023-08-07T02:24:19;101903.47;;;13.78
81657;BMP280;71067;51.482;-0.580;2023-08-07T02:26:45;101898.38;;;13.77
81657;BMP280;71067;51.482;-0.580;2023-08-07T02:29:10;101891.88;;;13.73
81657;BMP280;71067;51.482;-0.580;2023-08-07T02:31:36;101892.81;;;13.72
81657;BMP280;71067;51.482;-0.580;2023-08-07T02:34:01;101899.97;;;13.70
81657;BMP280;71067;51.482;-0.580;2023-08-07T02:36:26;101892.16;;;13.70
81657;BMP280;71067;51.482;-0.580;2023-08-07T02:38:51;101883.69;;;13.68
81657;BMP280;71067;51.482;-0.580;2023-08-07T02:41:17;101881.75;;;13.70
81657;BMP280;71067;51.482;-0.580;2023-08-07T02:43:42;101884.47;;;13.68
81657;BMP280;71067;51.482;-0.580;2023-08-07T02:46:08;101894.75;;;13.70
81657;BMP280;71067;51.482;-0.580;2023-08-07T02:48:33;101873.22;;;13.60
81657;BMP280;71067;51.482;-0.580;2023-08-07T02:50:59;101896.34;;;13.63
81657;BMP280;71067;51.482;-0.580;2023-08-07T02:53:24;101895.66;;;13.61
81657;BMP280;71067;51.482;-0.580;2023-08-07T02:55:49;101891.72;;;13.57
81657;BMP280;71067;51.482;-0.580;2023-08-07T02:58:14;101880.97;;;13.52
81657;BMP280;71067;51.482;-0.580;2023-08-07T03:00:40;101895.59;;;13.53
81657;BMP280;71067;51.482;-0.580;2023-08-07T03:03:05;101890.69;;;13.50
81657;BMP280;71067;51.482;-0.580;2023-08-07T03:05:31;101885.81;;;13.47
81657;BMP280;71067;51.482;-0.580;2023-08-07T03:07:56;101876.81;;;13.41
81657;BMP280;71067;51.482;-0.580;2023-08-07T03:10:21;101886.75;;;13.46
81657;BMP280;71067;51.482;-0.580;2023-08-07T03:12:47;101890.31;;;13.45
81657;BMP280;71067;51.482;-0.580;2023-08-07T03:15:12;101883.66;;;13.42
81657;BMP280;71067;51.482;-0.580;2023-08-07T03:17:37;101902.72;;;13.51
81657;BMP280;71067;51.482;-0.580;2023-08-07T03:20:03;101898.34;;;13.51
81657;BMP280;71067;51.482;-0.580;2023-08-07T03:22:29;101891.00;;;13.47
81657;BMP280;71067;51.482;-0.580;2023-08-07T03:24:54;101897.69;;;13.49
81657;BMP280;71067;51.482;-0.580;2023-08-07T03:27:20;101899.78;;;13.46
81657;BMP280;71067;51.482;-0.580;2023-08-07T03:29:45;101896.13;;;13.39
81657;BMP280;71067;51.482;-0.580;2023-08-07T03:32:11;101887.81;;;13.35
81657;BMP280;71067;51.482;-0.580;2023-08-07T03:34:36;101894.13;;;13.33
81657;BMP280;71067;51.482;-0.580;2023-08-07T03:37:01;101888.00;;;13.24
81657;BMP280;71067;51.482;-0.580;2023-08-07T03:39:27;101893.59;;;13.29
81657;BMP280;71067;51.482;-0.580;2023-08-07T03:41:52;101910.84;;;13.30
81657;BMP280;71067;51.482;-0.580;2023-08-07T03:44:17;101899.44;;;13.23
81657;BMP280;71067;51.482;-0.580;2023-08-07T03:46:43;101892.56;;;13.22
81657;BMP280;71067;51.482;-0.580;2023-08-07T03:49:08;101894.03;;;13.25
81657;BMP280;71067;51.482;-0.580;2023-08-07T03:51:33;101887.81;;;13.18
81657;BMP280;71067;51.482;-0.580;2023-08-07T03:53:59;101883.66;;;13.07
81657;BMP280;71067;51.482;-0.580;2023-08-07T03:56:24;101892.63;;;13.13
81657;BMP280;71067;51.482;-0.580;2023-08-07T03:58:49;101896.50;;;13.09
81657;BMP280;71067;51.482;-0.580;2023-08-07T04:01:15;101898.16;;;13.10
81657;BMP280;71067;51.482;-0.580;2023-08-07T04:03:41;101897.91;;;13.03
81657;BMP280;71067;51.482;-0.580;2023-08-07T04:06:06;101892.03;;;13.01
81657;BMP280;71067;51.482;-0.580;2023-08-07T04:08:32;101894.78;;;13.00
81657;BMP280;71067;51.482;-0.580;2023-08-07T04:11:05;101886.00;;;13.01
81657;BMP280;71067;51.482;-0.580;2023-08-07T04:13:30;101892.84;;;13.02
81657;BMP280;71067;51.482;-0.580;2023-08-07T04:15:57;101892.31;;;12.98
81657;BMP280;71067;51.482;-0.580;2023-08-07T04:18:23;101903.84;;;12.95
81657;BMP280;71067;51.482;-0.580;2023-08-07T04:20:53;101902.63;;;12.90
81657;BMP280;71067;51.482;-0.580;2023-08-07T04:23:18;101908.25;;;12.85
81657;BMP280;71067;51.482;-0.580;2023-08-07T04:25:45;101902.69;;;12.80
81657;BMP280;71067;51.482;-0.580;2023-08-07T04:28:11;101917.19;;;12.83
81657;BMP280;71067;51.482;-0.580;2023-08-07T04:30:36;101915.94;;;12.87
81657;BMP280;71067;51.482;-0.580;2023-08-07T04:33:01;101905.97;;;12.82
81657;BMP280;71067;51.482;-0.580;2023-08-07T04:35:27;101909.25;;;12.84
81657;BMP280;71067;51.482;-0.580;2023-08-07T04:37:53;101908.44;;;12.84
81657;BMP280;71067;51.482;-0.580;2023-08-07T04:40:18;101916.06;;;12.85
81657;BMP280;71067;51.482;-0.580;2023-08-07T04:42:44;101920.88;;;12.80
81657;BMP280;71067;51.482;-0.580;2023-08-07T04:45:09;101926.22;;;12.79
81657;BMP280;71067;51.482;-0.580;2023-08-07T04:47:34;101913.44;;;12.68
81657;BMP280;71067;51.482;-0.580;2023-08-07T04:50:00;101919.94;;;12.72
81657;BMP280;71067;51.482;-0.580;2023-08-07T04:52:27;101912.97;;;12.72
81657;BMP280;71067;51.482;-0.580;2023-08-07T04:54:53;101905.13;;;12.64
81657;BMP280;71067;51.482;-0.580;2023-08-07T04:57:18;101913.44;;;12.68
81657;BMP280;71067;51.482;-0.580;2023-08-07T04:59:43;101930.69;;;12.69
81657;BMP280;71067;51.482;-0.580;2023-08-07T05:02:09;101919.56;;;12.67
81657;BMP280;71067;51.482;-0.580;2023-08-07T05:04:35;101930.53;;;12.70
81657;BMP280;71067;51.482;-0.580;2023-08-07T05:07:00;101933.94;;;12.71
81657;BMP280;71067;51.482;-0.580;2023-08-07T05:09:26;101937.06;;;12.74
81657;BMP280;71067;51.482;-0.580;2023-08-07T05:11:51;101930.06;;;12.75
81657;BMP280;71067;51.482;-0.580;2023-08-07T05:14:16;101922.72;;;12.70
81657;BMP280;71067;51.482;-0.580;2023-08-07T05:16:42;101920.97;;;12.71
81657;BMP280;71067;51.482;-0.580;2023-08-07T05:19:07;101927.84;;;12.80
81657;BMP280;71067;51.482;-0.580;2023-08-07T05:21:32;101924.16;;;12.82
81657;BMP280;71067;51.482;-0.580;2023-08-07T05:23:57;101921.56;;;12.82
81657;BMP280;71067;51.482;-0.580;2023-08-07T05:26:23;101923.22;;;12.83
81657;BMP280;71067;51.482;-0.580;2023-08-07T05:28:48;101915.22;;;12.85
81657;BMP280;71067;51.482;-0.580;2023-08-07T05:31:13;101916.72;;;12.87
81657;BMP280;71067;51.482;-0.580;2023-08-07T05:33:39;101919.84;;;12.91
81657;BMP280;71067;51.482;-0.580;2023-08-07T05:36:04;101917.09;;;12.92
81657;BMP280;71067;51.482;-0.580;2023-08-07T05:38:31;101903.06;;;12.85
81657;BMP280;71067;51.482;-0.580;2023-08-07T05:40:56;101928.56;;;13.00
81657;BMP280;71067;51.482;-0.580;2023-08-07T05:43:22;101915.22;;;12.94
81657;BMP280;71067;51.482;-0.580;2023-08-07T05:45:47;101925.97;;;13.00
81657;BMP280;71067;51.482;-0.580;2023-08-07T05:48:14;101927.19;;;13.05
81657;BMP280;71067;51.482;-0.580;2023-08-07T05:50:39;101928.22;;;13.12
81657;BMP280;71067;51.482;-0.580;2023-08-07T05:53:05;101931.50;;;13.14
81657;BMP280;71067;51.482;-0.580;2023-08-07T05:55:30;101919.78;;;13.10
81657;BMP280;71067;51.482;-0.580;2023-08-07T05:57:56;101934.19;;;13.22
81657;BMP280;71067;51.482;-0.580;2023-08-07T06:00:21;101943.34;;;13.26
81657;BMP280;71067;51.482;-0.580;2023-08-07T06:02:46;101955.25;;;13.29
81657;BMP280;71067;51.482;-0.580;2023-08-07T06:05:12;101950.41;;;13.34
81657;BMP280;71067;51.482;-0.580;2023-08-07T06:07:39;101945.56;;;13.39
81657;BMP280;71067;51.482;-0.580;2023-08-07T06:10:05;101945.78;;;13.45
81657;BMP280;71067;51.482;-0.580;2023-08-07T06:12:31;101941.91;;;13.49
81657;BMP280;71067;51.482;-0.580;2023-08-07T06:14:56;101945.03;;;13.53
81657;BMP280;71067;51.482;-0.580;2023-08-07T06:17:21;101945.88;;;13.53
81657;BMP280;71067;51.482;-0.580;2023-08-07T06:19:47;101946.22;;;13.58
81657;BMP280;71067;51.482;-0.580;2023-08-07T06:22:12;101957.34;;;13.68
81657;BMP280;71067;51.482;-0.580;2023-08-07T06:24:38;101953.22;;;13.75
81657;BMP280;71067;51.482;-0.580;2023-08-07T06:27:03;101946.06;;;13.77
81657;BMP280;71067;51.482;-0.580;2023-08-07T06:29:29;101949.84;;;13.83
81657;BMP280;71067;51.482;-0.580;2023-08-07T06:31:54;101954.59;;;13.87
81657;BMP280;71067;51.482;-0.580;2023-08-07T06:34:19;101957.53;;;13.92
81657;BMP280;71067;51.482;-0.580;2023-08-07T06:36:45;101948.63;;;13.95
81657;BMP280;71067;51.482;-0.580;2023-08-07T06:39:10;101953.22;;;14.01
81657;BMP280;71067;51.482;-0.580;2023-08-07T06:41:37;101955.38;;;14.06
81657;BMP280;71067;51.482;-0.580;2023-08-07T06:44:03;101961.75;;;14.11
81657;BMP280;71067;51.482;-0.580;2023-08-07T06:46:29;101958.84;;;14.14
81657;BMP280;71067;51.482;-0.580;2023-08-07T06:48:54;101961.00;;;14.19
81657;BMP280;71067;51.482;-0.580;2023-08-07T06:51:19;101959.41;;;14.26
81657;BMP280;71067;51.482;-0.580;2023-08-07T06:53:45;101959.09;;;14.29
81657;BMP280;71067;51.482;-0.580;2023-08-07T06:56:10;101957.66;;;14.34
81657;BMP280;71067;51.482;-0.580;2023-08-07T06:58:35;101954.75;;;14.37
81657;BMP280;71067;51.482;-0.580;2023-08-07T07:01:01;101954.28;;;14.42
81657;BMP280;71067;51.482;-0.580;2023-08-07T07:03:26;101950.56;;;14.44
81657;BMP280;71067;51.482;-0.580;2023-08-07T07:05:51;101946.66;;;14.48
81657;BMP280;71067;51.482;-0.580;2023-08-07T07:08:17;101946.66;;;14.48
81657;BMP280;71067;51.482;-0.580;2023-08-07T07:10:42;101948.50;;;14.64
81657;BMP280;71067;51.482;-0.580;2023-08-07T07:13:07;101945.63;;;14.67
81657;BMP280;71067;51.482;-0.580;2023-08-07T07:15:34;101950.34;;;14.71
81657;BMP280;71067;51.482;-0.580;2023-08-07T07:18:01;101946.41;;;14.75
81657;BMP280;71067;51.482;-0.580;2023-08-07T07:20:26;101950.38;;;14.79
81657;BMP280;71067;51.482;-0.580;2023-08-07T07:22:52;101943.84;;;14.83
81657;BMP280;71067;51.482;-0.580;2023-08-07T07:25:17;101942.56;;;14.87
81657;BMP280;71067;51.482;-0.580;2023-08-07T07:27:43;101946.81;;;14.96
81657;BMP280;71067;51.482;-0.580;2023-08-07T07:30:09;101949.78;;;15.01
81657;BMP280;71067;51.482;-0.580;2023-08-07T07:32:34;101944.56;;;15.10
81657;BMP280;71067;51.482;-0.580;2023-08-07T07:35:00;101938.53;;;15.17
81657;BMP280;71067;51.482;-0.580;2023-08-07T07:37:25;101935.78;;;15.19
81657;BMP280;71067;51.482;-0.580;2023-08-07T07:39:51;101935.47;;;15.30
81657;BMP280;71067;51.482;-0.580;2023-08-07T07:42:16;101942.66;;;15.36
81657;BMP280;71067;51.482;-0.580;2023-08-07T07:44:41;101939.06;;;15.37
81657;BMP280;71067;51.482;-0.580;2023-08-07T07:47:08;101936.78;;;15.42
81657;BMP280;71067;51.482;-0.580;2023-08-07T07:49:33;101936.94;;;15.48
81657;BMP280;71067;51.482;-0.580;2023-08-07T07:51:59;101935.44;;;15.54
81657;BMP280;71067;51.482;-0.580;2023-08-07T07:54:24;101927.94;;;15.59
81657;BMP280;71067;51.482;-0.580;2023-08-07T07:56:50;101927.94;;;15.67
81657;BMP280;71067;51.482;-0.580;2023-08-07T07:59:16;101945.56;;;15.73
81657;BMP280;71067;51.482;-0.580;2023-08-07T08:01:41;101944.59;;;15.82
81657;BMP280;71067;51.482;-0.580;2023-08-07T08:04:06;101936.56;;;15.91
81657;BMP280;71067;51.482;-0.580;2023-08-07T08:06:32;101938.34;;;15.99
81657;BMP280;71067;51.482;-0.580;2023-08-07T08:08:57;101947.16;;;16.06
81657;BMP280;71067;51.482;-0.580;2023-08-07T08:11:23;101945.31;;;16.14
81657;BMP280;71067;51.482;-0.580;2023-08-07T08:13:48;101953.03;;;16.16
81657;BMP280;71067;51.482;-0.580;2023-08-07T08:16:14;101950.72;;;16.21
81657;BMP280;71067;51.482;-0.580;2023-08-07T08:18:40;101942.00;;;16.29
81657;BMP280;71067;51.482;-0.580;2023-08-07T08:21:05;101957.16;;;16.41
81657;BMP280;71067;51.482;-0.580;2023-08-07T08:23:31;101957.28;;;16.48
81657;BMP280;71067;51.482;-0.580;2023-08-07T08:25:57;101963.94;;;16.58
81657;BMP280;71067;51.482;-0.580;2023-08-07T08:28:22;101947.47;;;16.58
81657;BMP280;71067;51.482;-0.580;2023-08-07T08:30:48;101953.38;;;16.74
81657;BMP280;71067;51.482;-0.580;2023-08-07T08:33:13;101958.91;;;16.79
81657;BMP280;71067;51.482;-0.580;2023-08-07T08:35:40;101966.59;;;16.89
81657;BMP280;71067;51.482;-0.580;2023-08-07T08:38:05;101957.38;;;16.93
81657;BMP280;71067;51.482;-0.580;2023-08-07T08:40:31;101955.34;;;17.03
81657;BMP280;71067;51.482;-0.580;2023-08-07T08:42:59;101958.44;;;17.06
81657;BMP280;71067;51.482;-0.580;2023-08-07T08:45:28;101957.22;;;17.17
81657;BMP280;71067;51.482;-0.580;2023-08-07T08:48:01;101956.97;;;17.26
81657;BMP280;71067;51.482;-0.580;2023-08-07T08:50:28;101948.44;;;17.33
81657;BMP280;71067;51.482;-0.580;2023-08-07T08:52:55;101950.97;;;17.41
81657;BMP280;71067;51.482;-0.580;2023-08-07T08:55:21;101954.50;;;17.48
81657;BMP280;71067;51.482;-0.580;2023-08-07T08:57:47;101953.19;;;17.52
81657;BMP280;71067;51.482;-0.580;2023-08-07T09:00:13;101956.97;;;17.64
81657;BMP280;71067;51.482;-0.580;2023-08-07T09:02:51;101957.38;;;17.75
81657;BMP280;71067;51.482;-0.580;2023-08-07T09:05:19;101959.09;;;17.83
81657;BMP280;71067;51.482;-0.580;2023-08-07T09:07:48;101957.66;;;17.95
81657;BMP280;71067;51.482;-0.580;2023-08-07T09:10:15;101954.31;;;18.01
81657;BMP280;71067;51.482;-0.580;2023-08-07T09:12:46;101962.44;;;18.06
81657;BMP280;71067;51.482;-0.580;2023-08-07T09:15:15;101952.75;;;18.06
81657;BMP280;71067;51.482;-0.580;2023-08-07T09:17:42;101948.88;;;18.17
81657;BMP280;71067;51.482;-0.580;2023-08-07T09:20:09;101956.63;;;18.25
81657;BMP280;71067;51.482;-0.580;2023-08-07T09:22:41;101963.63;;;18.32
81657;BMP280;71067;51.482;-0.580;2023-08-07T09:25:07;101952.06;;;18.48
81657;BMP280;71067;51.482;-0.580;2023-08-07T09:27:36;101955.50;;;18.48
81657;BMP280;71067;51.482;-0.580;2023-08-07T09:30:02;101956.31;;;18.49
81657;BMP280;71067;51.482;-0.580;2023-08-07T09:32:27;101944.38;;;18.61
81657;BMP280;71067;51.482;-0.580;2023-08-07T09:34:53;101960.34;;;18.66
81657;BMP280;71067;51.482;-0.580;2023-08-07T09:37:18;101937.25;;;18.61
81657;BMP280;71067;51.482;-0.580;2023-08-07T09:39:43;101953.66;;;18.64
81657;BMP280;71067;51.482;-0.580;2023-08-07T09:42:16;101953.19;;;18.75
81657;BMP280;71067;51.482;-0.580;2023-08-07T09:44:42;101945.16;;;18.83
81657;BMP280;71067;51.482;-0.580;2023-08-07T09:47:15;101964.56;;;18.82
81657;BMP280;71067;51.482;-0.580;2023-08-07T09:49:40;101948.97;;;18.80
81657;BMP280;71067;51.482;-0.580;2023-08-07T09:52:07;101954.69;;;18.84
81657;BMP280;71067;51.482;-0.580;2023-08-07T09:54:33;101948.44;;;18.85
81657;BMP280;71067;51.482;-0.580;2023-08-07T09:56:59;101952.91;;;18.91
81657;BMP280;71067;51.482;-0.580;2023-08-07T09:59:26;101943.63;;;18.88
81657;BMP280;71067;51.482;-0.580;2023-08-07T10:01:53;101936.19;;;18.92
81657;BMP280;71067;51.482;-0.580;2023-08-07T10:04:18;101931.19;;;18.97
81657;BMP280;71067;51.482;-0.580;2023-08-07T10:06:44;101942.63;;;19.10
81657;BMP280;71067;51.482;-0.580;2023-08-07T10:09:11;101932.53;;;19.14
81657;BMP280;71067;51.482;-0.580;2023-08-07T10:11:38;101934.97;;;19.15
81657;BMP280;71067;51.482;-0.580;2023-08-07T10:14:04;101928.97;;;19.21
81657;BMP280;71067;51.482;-0.580;2023-08-07T10:16:30;101921.81;;;19.36
81657;BMP280;71067;51.482;-0.580;2023-08-07T10:18:55;101927.09;;;19.43
81657;BMP280;71067;51.482;-0.580;2023-08-07T10:21:21;101934.81;;;19.44
81657;BMP280;71067;51.482;-0.580;2023-08-07T10:23:51;101933.34;;;19.42
81657;BMP280;71067;51.482;-0.580;2023-08-07T10:26:18;101927.97;;;19.50
81657;BMP280;71067;51.482;-0.580;2023-08-07T10:28:45;101931.00;;;19.53
81657;BMP280;71067;51.482;-0.580;2023-08-07T10:31:12;101923.56;;;19.63
81657;BMP280;71067;51.482;-0.580;2023-08-07T10:33:38;101910.06;;;19.66
81657;BMP280;71067;51.482;-0.580;2023-08-07T10:36:09;101911.53;;;19.75
81657;BMP280;71067;51.482;-0.580;2023-08-07T10:38:35;101909.72;;;19.82
81657;BMP280;71067;51.482;-0.580;2023-08-07T10:41:12;101909.41;;;19.98
81657;BMP280;71067;51.482;-0.580;2023-08-07T10:43:42;101904.81;;;20.14
81657;BMP280;71067;51.482;-0.580;2023-08-07T10:46:13;101911.94;;;20.33
81657;BMP280;71067;51.482;-0.580;2023-08-07T10:48:45;101905.25;;;20.37
81657;BMP280;71067;51.482;-0.580;2023-08-07T10:51:17;101904.06;;;20.39
81657;BMP280;71067;51.482;-0.580;2023-08-07T10:53:45;101897.38;;;20.30
81657;BMP280;71067;51.482;-0.580;2023-08-07T10:56:16;101894.94;;;20.35
81657;BMP280;71067;51.482;-0.580;2023-08-07T10:58:42;101891.72;;;20.33
81657;BMP280;71067;51.482;-0.580;2023-08-07T11:01:20;101896.16;;;20.33
81657;BMP280;71067;51.482;-0.580;2023-08-07T11:03:52;101887.69;;;20.31
81657;BMP280;71067;51.482;-0.580;2023-08-07T11:06:21;101891.88;;;20.32
81657;BMP280;71067;51.482;-0.580;2023-08-07T11:08:48;101883.44;;;20.43
81657;BMP280;71067;51.482;-0.580;2023-08-07T11:11:13;101873.28;;;20.33
81657;BMP280;71067;51.482;-0.580;2023-08-07T11:13:38;101880.59;;;20.51
81657;BMP280;71067;51.482;-0.580;2023-08-07T11:16:04;101880.78;;;20.56
81657;BMP280;71067;51.482;-0.580;2023-08-07T11:18:30;101875.09;;;20.52
81657;BMP280;71067;51.482;-0.580;2023-08-07T11:20:56;101879.59;;;20.52
81657;BMP280;71067;51.482;-0.580;2023-08-07T11:23:24;101876.97;;;20.58
81657;BMP280;71067;51.482;-0.580;2023-08-07T11:25:51;101874.53;;;20.63
81657;BMP280;71067;51.482;-0.580;2023-08-07T11:28:20;101869.66;;;20.73
81657;BMP280;71067;51.482;-0.580;2023-08-07T11:30:52;101873.13;;;20.87
81657;BMP280;71067;51.482;-0.580;2023-08-07T11:33:18;101874.09;;;20.86
81657;BMP280;71067;51.482;-0.580;2023-08-07T11:35:45;101875.34;;;20.83
81657;BMP280;71067;51.482;-0.580;2023-08-07T11:38:10;101873.31;;;20.79
81657;BMP280;71067;51.482;-0.580;2023-08-07T11:40:36;101866.81;;;20.81
81657;BMP280;71067;51.482;-0.580;2023-08-07T11:43:02;101871.25;;;20.81
81657;BMP280;71067;51.482;-0.580;2023-08-07T11:45:28;101865.22;;;20.87
81657;BMP280;71067;51.482;-0.580;2023-08-07T11:47:53;101868.25;;;20.90
81657;BMP280;71067;51.482;-0.580;2023-08-07T11:50:21;101868.06;;;20.85
81657;BMP280;71067;51.482;-0.580;2023-08-07T11:52:47;101867.22;;;20.85
81657;BMP280;71067;51.482;-0.580;2023-08-07T11:55:14;101864.81;;;20.83
81657;BMP280;71067;51.482;-0.580;2023-08-07T11:57:39;101859.16;;;20.80
81657;BMP280;71067;51.482;-0.580;2023-08-07T12:00:09;101863.00;;;20.77
81657;BMP280;71067;51.482;-0.580;2023-08-07T12:02:41;101862.38;;;20.82
81657;BMP280;71067;51.482;-0.580;2023-08-07T12:05:10;101859.94;;;20.87
81657;BMP280;71067;51.482;-0.580;2023-08-07T12:07:37;101858.75;;;20.96
81657;BMP280;71067;51.482;-0.580;2023-08-07T12:10:06;101853.03;;;20.99
81657;BMP280;71067;51.482;-0.580;2023-08-07T12:12:38;101854.66;;;21.00
81657;BMP280;71067;51.482;-0.580;2023-08-07T12:15:07;101857.50;;;20.85
81657;BMP280;71067;51.482;-0.580;2023-08-07T12:17:33;101850.22;;;20.74
81657;BMP280;71067;51.482;-0.580;2023-08-07T12:19:59;101845.78;;;20.75
81657;BMP280;71067;51.482;-0.580;2023-08-07T12:22:27;101847.41;;;20.82
81657;BMP280;71067;51.482;-0.580;2023-08-07T12:24:52;101839.06;;;20.92
81657;BMP280;71067;51.482;-0.580;2023-08-07T12:27:19;101841.44;;;21.13
81657;BMP280;71067;51.482;-0.580;2023-08-07T12:29:44;101845.91;;;21.19
81657;BMP280;71067;51.482;-0.580;2023-08-07T12:32:10;101838.00;;;21.19
81657;BMP280;71067;51.482;-0.580;2023-08-07T12:34:35;101840.66;;;21.19
81657;BMP280;71067;51.482;-0.580;2023-08-07T12:37:01;101838.44;;;21.16
81657;BMP280;71067;51.482;-0.580;2023-08-07T12:39:26;101842.06;;;21.15
81657;BMP280;71067;51.482;-0.580;2023-08-07T12:41:51;101833.16;;;21.16
81657;BMP280;71067;51.482;-0.580;2023-08-07T12:44:17;101825.84;;;21.18
81657;BMP280;71067;51.482;-0.580;2023-08-07T12:46:42;101833.31;;;21.21
81657;BMP280;71067;51.482;-0.580;2023-08-07T12:49:10;101830.47;;;21.29
81657;BMP280;71067;51.482;-0.580;2023-08-07T12:51:36;101829.84;;;21.40
81657;BMP280;71067;51.482;-0.580;2023-08-07T12:54:01;101835.25;;;21.52
81657;BMP280;71067;51.482;-0.580;2023-08-07T12:56:26;101830.81;;;21.52
81657;BMP280;71067;51.482;-0.580;2023-08-07T12:58:52;101826.06;;;21.67
81657;BMP280;71067;51.482;-0.580;2023-08-07T13:01:17;101826.78;;;21.81
81657;BMP280;71067;51.482;-0.580;2023-08-07T13:03:42;101825.97;;;21.87
81657;BMP280;71067;51.482;-0.580;2023-08-07T13:06:08;101827.78;;;21.86
81657;BMP280;71067;51.482;-0.580;2023-08-07T13:08:34;101831.00;;;21.88
81657;BMP280;71067;51.482;-0.580;2023-08-07T13:11:01;101824.25;;;21.99
81657;BMP280;71067;51.482;-0.580;2023-08-07T13:13:26;101831.09;;;22.06
81657;BMP280;71067;51.482;-0.580;2023-08-07T13:15:53;101826.44;;;22.08
81657;BMP280;71067;51.482;-0.580;2023-08-07T13:18:19;101825.97;;;22.11
81657;BMP280;71067;51.482;-0.580;2023-08-07T13:20:44;101802.59;;;22.21
81657;BMP280;71067;51.482;-0.580;2023-08-07T13:23:10;101819.16;;;22.28
81657;BMP280;71067;51.482;-0.580;2023-08-07T13:25:35;101820.13;;;22.34
81657;BMP280;71067;51.482;-0.580;2023-08-07T13:28:01;101811.13;;;22.41
81657;BMP280;71067;51.482;-0.580;2023-08-07T13:30:32;101808.16;;;22.56
81657;BMP280;71067;51.482;-0.580;2023-08-07T13:32:57;101804.06;;;22.60
81657;BMP280;71067;51.482;-0.580;2023-08-07T13:35:22;101806.75;;;22.71
81657;BMP280;71067;51.482;-0.580;2023-08-07T13:37:48;101818.69;;;22.80
81657;BMP280;71067;51.482;-0.580;2023-08-07T13:40:13;101813.25;;;22.93
81657;BMP280;71067;51.482;-0.580;2023-08-07T13:42:39;101812.69;;;22.91